地図

経路データ

SID SEASON NUMBER BASIN SUBBASIN NAME ISO_TIME NATURE LAT LON WMO_WIND WMO_PRES WMO_AGENCY TRACK_TYPE DIST2LAND LANDFALL IFLAG USA_AGENCY USA_ATCF_ID USA_LAT USA_LON USA_RECORD USA_STATUS USA_WIND USA_PRES USA_SSHS USA_R34_NE USA_R34_SE USA_R34_SW USA_R34_NW USA_R50_NE USA_R50_SE USA_R50_SW USA_R50_NW USA_R64_NE USA_R64_SE USA_R64_SW USA_R64_NW USA_POCI USA_ROCI USA_RMW USA_EYE TOKYO_LAT TOKYO_LON TOKYO_GRADE TOKYO_WIND TOKYO_PRES TOKYO_R50_DIR TOKYO_R50_LONG TOKYO_R50_SHORT TOKYO_R30_DIR TOKYO_R30_LONG TOKYO_R30_SHORT TOKYO_LAND CMA_LAT CMA_LON CMA_CAT CMA_WIND CMA_PRES HKO_LAT HKO_LON HKO_CAT HKO_WIND HKO_PRES NEWDELHI_LAT NEWDELHI_LON NEWDELHI_GRADE NEWDELHI_WIND NEWDELHI_PRES NEWDELHI_CI NEWDELHI_DP NEWDELHI_POCI REUNION_LAT REUNION_LON REUNION_TYPE REUNION_WIND REUNION_PRES REUNION_TNUM REUNION_CI REUNION_RMW REUNION_R34_NE REUNION_R34_SE REUNION_R34_SW REUNION_R34_NW REUNION_R50_NE REUNION_R50_SE REUNION_R50_SW REUNION_R50_NW REUNION_R64_NE REUNION_R64_SE REUNION_R64_SW REUNION_R64_NW BOM_LAT BOM_LON BOM_TYPE BOM_WIND BOM_PRES BOM_TNUM BOM_CI BOM_RMW BOM_R34_NE BOM_R34_SE BOM_R34_SW BOM_R34_NW BOM_R50_NE BOM_R50_SE BOM_R50_SW BOM_R50_NW BOM_R64_NE BOM_R64_SE BOM_R64_SW BOM_R64_NW BOM_ROCI BOM_POCI BOM_EYE BOM_POS_METHOD BOM_PRES_METHOD NADI_LAT NADI_LON NADI_CAT NADI_WIND NADI_PRES WELLINGTON_LAT WELLINGTON_LON WELLINGTON_WIND WELLINGTON_PRES DS824_LAT DS824_LON DS824_STAGE DS824_WIND DS824_PRES TD9636_LAT TD9636_LON TD9636_STAGE TD9636_WIND TD9636_PRES TD9635_LAT TD9635_LON TD9635_WIND TD9635_PRES TD9635_ROCI NEUMANN_LAT NEUMANN_LON NEUMANN_CLASS NEUMANN_WIND NEUMANN_PRES MLC_LAT MLC_LON MLC_CLASS MLC_WIND MLC_PRES USA_GUST BOM_GUST BOM_GUST_PER REUNION_GUST REUNION_GUST_PER USA_SEAHGT USA_SEARAD_NE USA_SEARAD_SE USA_SEARAD_SW USA_SEARAD_NW STORM_SPEED STORM_DIR
1964074S15149 1964 21 SP EA GERTIE 1964-03-14 00:00:00 TS -15.3000 149.200 main 400 366 O________OO___ jtwc_sh SH271964 -15.3000 149.200 -1 -15.3000 149.200 TC -15.3000 149.200 2 10 189
1964074S15149 1964 21 SP EA GERTIE 1964-03-14 03:00:00 TS -15.7924 149.114 main 366 351 P________PP___ SH271964 -15.7800 149.113 -1 -15.7800 149.113 TC -15.8172 149.116 2 10 186
1964074S15149 1964 21 SP EA GERTIE 1964-03-14 05:00:00 TS -16.1080 149.111 1003 bom main 351 346 P_____O__PP___ SH271964 -16.0704 149.042 -1 -16.3000 149.700 1003 -16.0704 149.042 TC -16.1191 149.052 2 9 172
1964074S15149 1964 21 SP EA GERTIE 1964-03-14 06:00:00 TS -16.2563 149.189 main 352 341 O_____P__OP_O_ jtwc_sh SH271964 -16.2000 149.000 -1 -16.4051 149.681 1003 -16.2000 149.000 TC -16.2476 149.016 2 -16.3000 149.900 TC 25 1003 7 174
1964074S15149 1964 21 SP EA GERTIE 1964-03-14 09:00:00 TS -16.5631 149.168 main 341 338 P_____P__PP_P_ SH271964 -16.4850 148.850 -1 -16.7116 149.629 1003 -16.4850 148.850 TC -16.5041 148.883 2 -16.6225 149.840 TC 25 1003 5 0
1964074S15149 1964 21 SP EA GERTIE 1964-03-14 11:00:00 TS -16.6903 149.169 1003 bom main 338 338 P_____O__PP_P_ SH271964 -16.5343 148.747 -1 -16.9000 149.600 1003 -16.5343 148.747 TC -16.5357 148.767 2 -16.8153 149.810 TC 25 1003 3 0
1964074S15149 1964 21 SP EA GERTIE 1964-03-14 12:00:00 TS -16.7312 149.181 main 338 328 O_____P__OO_O_ jtwc_sh SH271964 -16.5000 148.700 -1 -16.9871 149.589 1002 -16.5000 148.700 TC -16.5000 148.700 2 -16.9000 149.800 TC 25 1003 1 291
1964074S15149 1964 21 SP EA GERTIE 1964-03-14 15:00:00 TS -16.6657 149.098 main 328 321 P_____P__PP_P_ SH271964 -16.1100 148.600 -1 -17.2241 149.567 1002 -16.1100 148.600 TC -16.1945 148.469 2 -17.1075 149.792 TC 25 1002 3 324
1964074S15149 1964 21 SP EA GERTIE 1964-03-14 18:00:00 TS -16.5233 149.027 main 324 318 O_____P__OP_O_ jtwc_sh SH271964 -15.6000 148.500 -1 -17.4392 149.564 1002 -15.6000 148.500 TC -15.7319 148.255 2 -17.3000 149.800 TC 25 1002 3 326
1964074S15149 1964 21 SP EA GERTIE 1964-03-14 21:00:00 TS -16.4344 148.933 main 318 318 P_____P__PP_P_ SH271964 -15.2149 148.268 -1 -17.6511 149.579 1002 -15.2149 148.268 TC -15.3034 148.139 2 -17.5425 149.793 TC 25 1002 2 308
1964074S15149 1964 21 SP EA GERTIE 1964-03-14 23:00:00 TS -16.4425 148.916 1002 bom main 318 314 P_____O__PP_P_ SH271964 -15.0928 148.184 -1 -17.8000 149.600 1002 -15.0928 148.184 TC -15.1310 148.155 2 -17.7140 149.794 TC 25 1002 1 0
1964074S15149 1964 21 SP EA GERTIE 1964-03-15 00:00:00 TS -16.4802 148.934 main 314 314 O_____P__OO_O_ jtwc_sh SH271964 -15.1000 148.200 -1 -17.8815 149.607 1001 -15.1000 148.200 TC -15.1000 148.200 2 -17.8000 149.800 TC 25 1002 6 146
1964074S15149 1964 21 SP EA GERTIE 1964-03-15 03:00:00 TS -16.7541 149.137 main 325 325 P_____P__PP_P_ SH271964 -15.4226 148.538 -1 -18.1315 149.646 1000 -15.4226 148.538 TC -15.3506 148.593 2 -18.0500 149.828 TC 27 1000 8 143
1964074S15149 1964 21 SP EA GERTIE 1964-03-15 05:00:00 TS -17.0139 149.348 999 bom main 335 332 P_____O__PP_P_ SH271964 -15.7962 148.901 -1 -18.3000 149.700 999 4 -15.7962 148.901 TC -15.6588 148.957 2 -18.2167 149.869 TC 29 999 10 142
1964074S15149 1964 21 SP EA GERTIE 1964-03-15 06:00:00 TS -17.1546 149.465 main 331 316 O_____P__OP_O_ jtwc_sh SH271964 -16.0000 149.100 -1 -18.3825 149.733 999 -16.0000 149.100 TC -15.8450 149.156 2 -18.3000 149.900 TC 30 999 11 140
1964074S15149 1964 21 SP EA GERTIE 1964-03-15 09:00:00 TS -17.5697 149.845 main 311 301 P_____P__PP_P_ SH271964 -16.5480 149.744 -1 -18.6307 149.872 999 -16.5480 149.744 TC -16.4916 149.767 2 -18.5499 150.013 TC 30 999 11 140
1964074S15149 1964 21 SP EA GERTIE 1964-03-15 11:00:00 TS -17.8725 150.098 1000 bom main 301 296 P_____O__PP_P_ SH271964 -16.9695 150.143 -1 -18.8000 150.000 1000 -16.9695 150.143 TC -16.9625 150.139 2 -18.7166 150.128 TC 30 999 12 143
1964074S15149 1964 21 SP EA GERTIE 1964-03-15 12:00:00 TS -18.0323 150.212 main 296 262 O_____P__OO_O_ jtwc_sh SH271964 -17.2000 150.300 -1 -18.8936 150.071 1000 -17.2000 150.300 TC -17.2000 150.300 2 -18.8000 150.200 TC 30 1000 12 154
1964074S15149 1964 21 SP EA GERTIE 1964-03-15 15:00:00 TS -18.5588 150.455 main 260 238 P_____P__PP_P_ SH271964 -18.0071 150.511 -1 -19.1889 150.325 1000 -18.0071 150.511 TC -17.9365 150.572 2 -19.0425 150.478 TC 27 1000 11 158
1964074S15149 1964 21 SP EA GERTIE 1964-03-15 18:00:00 TS -19.0873 150.667 main 239 228 O_____P__OP_O_ jtwc_sh SH271964 -18.8000 150.600 -1 -19.4842 150.631 1001 -18.8000 150.600 TC -18.6988 150.749 2 -19.3000 150.800 TC 25 1001 11 157
1964074S15149 1964 21 SP EA GERTIE 1964-03-15 21:00:00 TS -19.5627 150.912 main 231 231 P_____P__PP_P_ SH271964 -19.4625 150.792 -1 -19.7514 150.967 1002 -19.4625 150.792 TC -19.3868 150.875 2 -19.6224 151.092 TC 25 1002 10 152
1964074S15149 1964 21 SP EA GERTIE 1964-03-15 23:00:00 TS -19.8141 151.082 1003 bom main 242 239 P_____O__PP_P_ SH271964 -19.7869 150.931 -1 -19.9000 151.200 1003 -19.7869 150.931 TC -19.7546 150.956 2 -19.8202 151.294 TC 25 1002 9 145
1964074S15149 1964 21 SP EA GERTIE 1964-03-16 00:00:00 TS -19.9101 151.169 main 247 241 O_____P__OO_O_ jtwc_sh SH271964 -19.9000 151.000 -1 -19.9605 151.316 1003 -19.9000 151.000 TC -19.9000 151.000 2 -19.9000 151.400 TC 25 1003 6 126
1964074S15149 1964 21 SP EA GERTIE 1964-03-16 03:00:00 TS -20.0605 151.445 main 254 254 P_____P__PP_P_ SH271964 -20.0325 151.200 -1 -20.1052 151.678 1003 -20.0325 151.200 TC -20.1076 151.190 2 -20.0300 151.743 TC 25 1003 6 110
1964074S15149 1964 21 SP EA GERTIE 1964-03-16 06:00:00 TS -20.1015 151.725 main 277 277 O_____P__OP_O_ jtwc_sh SH271964 -20.0000 151.400 -1 -20.2038 152.044 1003 -20.0000 151.400 TC -20.1373 151.386 2 -20.1000 152.100 TC 25 1003 5 98
1964074S15149 1964 21 SP EA GERTIE 1964-03-16 09:00:00 TS -20.1339 152.005 main 290 290 P_____P__PP_P_ SH271964 -20.0000 151.600 -1 -20.2690 152.390 1003 -20.0000 151.600 TC -20.0733 151.590 2 -20.2150 152.472 TC 25 1003 5 96
1964074S15149 1964 21 SP EA GERTIE 1964-03-16 11:00:00 TS -20.1461 152.182 1003 bom main 300 290 P_____O__PP_P_ SH271964 -19.9969 151.733 -1 -20.3000 152.600 1003 -19.9969 151.733 TC -20.0203 151.729 2 -20.2781 152.700 TC 25 1003 5 94
1964074S15149 1964 21 SP EA GERTIE 1964-03-16 12:00:00 TS -20.1528 152.265 main 296 296 O_____P__OO_O_ jtwc_sh SH271964 -20.0000 151.800 -1 -20.3170 152.691 1003 -20.0000 151.800 TC -20.0000 151.800 2 -20.3000 152.800 TC 25 1003 4 98
1964074S15149 1964 21 SP EA GERTIE 1964-03-16 15:00:00 TS -20.1866 152.478 main 308 308 P_____P__PP_P_ SH271964 -20.0424 151.992 -1 -20.3511 152.934 1003 -20.0424 151.992 TC -20.0341 151.973 2 -20.3074 153.015 TC 22 1003 4 100
1964074S15149 1964 21 SP EA GERTIE 1964-03-16 18:00:00 TS -20.2185 152.682 main 321 321 O_____P__OP_O_ jtwc_sh SH271964 -20.1000 152.200 -1 -20.3697 153.150 1004 -20.1000 152.200 TC -20.0765 152.160 2 -20.3000 153.200 TC 20 1004 4 100
1964074S15149 1964 21 SP EA GERTIE 1964-03-16 21:00:00 TS -20.2538 152.901 main 327 327 P_____P__PP_P_ SH271964 -20.1423 152.413 -1 -20.3853 153.358 1004 -20.1423 152.413 TC -20.1307 152.392 2 -20.3425 153.442 TC 20 1004 4 100
1964074S15149 1964 21 SP EA GERTIE 1964-03-16 23:00:00 TS -20.2838 153.069 1005 bom main 341 341 P_____O__PP_P_ SH271964 -20.1775 152.591 -1 -20.4000 153.500 1005 -20.1775 152.591 TC -20.1751 152.587 2 -20.3807 153.614 TC 20 1004 5 101
1964074S15149 1964 21 SP EA GERTIE 1964-03-17 00:00:00 TS -20.3030 153.163 main 349 349 O_____P__OO_O_ jtwc_sh SH271964 -20.2000 152.700 -1 -20.4182 153.579 1004 -20.2000 152.700 TC -20.2000 152.700 2 -20.4000 153.700 TC 20 1005 6 103
1964074S15149 1964 21 SP EA GERTIE 1964-03-17 03:00:00 TS -20.3762 153.493 main 364 364 P_____P__PP_P_ SH271964 -20.2925 153.105 -1 -20.4804 153.820 1004 -20.2925 153.105 TC -20.3069 153.149 2 -20.4500 153.950 TC 20 1004 7 103
1964074S15149 1964 21 SP EA GERTIE 1964-03-17 06:00:00 TS -20.4581 153.869 main 390 390 O_____P__OP_O_ jtwc_sh SH271964 -20.4000 153.600 -1 -20.5418 154.068 1003 -20.4000 153.600 TC -20.4239 153.669 2 -20.5000 154.200 TC 20 1004 7 103
1964074S15149 1964 21 SP EA GERTIE 1964-03-17 09:00:00 TS -20.5392 154.272 main 425 419 P_____P__PP_P_ SH271964 -20.5077 154.165 -1 -20.5868 154.325 1003 -20.5077 154.165 TC -20.5288 154.205 2 -20.5650 154.450 TC 22 1003 8 101
1964074S15149 1964 21 SP EA GERTIE 1964-03-17 11:00:00 TS -20.5838 154.543 1003 bom main 437 446 P_____O__PP_P_ SH271964 -20.5725 154.534 -1 -20.6000 154.500 1003 -20.5725 154.534 TC -20.5813 154.543 2 -20.5947 154.617 TC 24 1003 8 99
1964074S15149 1964 21 SP EA GERTIE 1964-03-17 12:00:00 TS -20.6000 154.674 main 455 455 O_____P__OO_O_ jtwc_sh SH271964 -20.6000 154.700 -1 -20.6000 154.589 1003 -20.6000 154.700 TC -20.6000 154.700 2 -20.6000 154.700 TC 25 1003 7 96
1964074S15149 1964 21 SP EA GERTIE 1964-03-17 15:00:00 TS -20.6294 155.013 main 483 483 P_____P__PP_P_ SH271964 -20.6798 155.087 -1 -20.5756 154.860 1003 -20.6798 155.087 TC -20.6469 155.088 2 -20.5649 154.943 TC 22 1003 6 92
1964074S15149 1964 21 SP EA GERTIE 1964-03-17 18:00:00 TS -20.6203 155.321 main 511 511 O_____P__OP_O_ jtwc_sh SH271964 -20.7000 155.400 -1 -20.5228 155.135 1004 -20.7000 155.400 TC -20.6543 155.425 2 -20.5000 155.200 TC 20 1004 6 84
1964074S15149 1964 21 SP EA GERTIE 1964-03-17 21:00:00 TS -20.5723 155.628 main 525 525 P_____P__PP_P_ SH271964 -20.6374 155.708 -1 -20.4520 155.414 1004 -20.6374 155.708 TC -20.6096 155.725 2 -20.4649 155.477 TC 20 1004 6 77
1964074S15149 1964 21 SP EA GERTIE 1964-03-17 23:00:00 TS -20.5124 155.836 1005 bom main 544 549 P_____O__PP_P_ SH271964 -20.5526 155.903 -1 -20.4000 155.600 1005 -20.5526 155.903 TC -20.5445 155.910 2 -20.4280 155.686 TC 20 1004 6 72
1964074S15149 1964 21 SP EA GERTIE 1964-03-18 00:00:00 TS -20.4750 155.950 main 554 554 O________OO_O_ jtwc_sh SH271964 -20.5000 156.000 -1 -20.5000 156.000 TC -20.5000 156.000 2 -20.4000 155.800 TC 20 1005 7 66
1964074S15149 1964 21 SP EA GERTIE 1964-03-18 03:00:00 TS -20.3186 156.293 main 589 589 P________PP_P_ SH271964 -20.3300 156.315 -1 -20.3300 156.315 TC -20.3269 156.325 2 -20.2877 156.215 TC 27 7 58
1964074S15149 1964 21 SP EA GERTIE 1964-03-18 06:00:00 TS -20.0975 156.605 main 625 625 O________OP_O_ jtwc_sh SH271964 -20.1000 156.600 -1 -20.1000 156.600 TC -20.0901 156.621 2 -20.1000 156.600 TC 35 7 46
1964074S15149 1964 21 SP EA GERTIE 1964-03-18 09:00:00 TS -19.8208 156.852 main 670 670 P________PP_P_ SH271964 -19.8225 156.845 -1 -19.8225 156.845 TC -19.8082 156.856 2 -19.8299 156.860 TC 35 7 32
1964074S15149 1964 21 SP EA GERTIE 1964-03-18 12:00:00 TS -19.5000 157.000 main 704 704 O________OO_O_ jtwc_sh SH271964 -19.5000 157.000 -1 -19.5000 157.000 TC -19.5000 157.000 2 -19.5000 157.000 TC 35 7 15
1964074S15149 1964 21 SP EA GERTIE 1964-03-18 15:00:00 TS -19.1494 157.048 main 742 742 P________PP_P_ SH271964 -19.1499 157.052 -1 -19.1499 157.052 TC -19.1476 157.034 2 -19.1499 157.052 TC 35 7 0
1964074S15149 1964 21 SP EA GERTIE 1964-03-18 18:00:00 TS -18.7956 156.994 main 752 752 O________OP_O_ jtwc_sh SH271964 -18.8000 157.000 -1 -18.8000 157.000 TC -18.7823 156.976 2 -18.8000 157.000 TC 35 7 347
1964074S15149 1964 21 SP EA GERTIE 1964-03-18 21:00:00 TS -18.4521 156.879 main 771 771 P________PP_P_ SH271964 -18.4550 156.887 -1 -18.4550 156.887 TC -18.4508 156.856 2 -18.4475 156.887 TC 35 7 335
1964074S15149 1964 21 SP EA GERTIE 1964-03-19 00:00:00 TS -18.2000 156.700 main 780 771 O________OO_O_ jtwc_sh SH271964 -18.2000 156.700 -1 -18.2000 156.700 TC -18.2000 156.700 2 -18.2000 156.700 TC 35 5 309
1964074S15149 1964 21 SP EA GERTIE 1964-03-19 03:00:00 TS -18.1256 156.448 main 763 747 P________PP_P_ SH271964 -18.1051 156.443 -1 -18.1051 156.443 TC -18.1295 156.464 2 -18.1626 156.443 TC 35 5 278
1964074S15149 1964 21 SP EA GERTIE 1964-03-19 06:00:00 TS -18.1337 156.204 main 747 724 O________OP_O_ jtwc_sh SH271964 -18.1000 156.200 -1 -18.1000 156.200 TC -18.1350 156.215 2 -18.2000 156.200 TC 35 4 266
1964074S15149 1964 21 SP EA GERTIE 1964-03-19 09:00:00 TS -18.1506 156.019 main 724 724 P________PP_P_ SH271964 -18.1299 156.017 -1 -18.1299 156.017 TC -18.1479 156.033 2 -18.1949 156.010 TC 35 2 280
1964074S15149 1964 21 SP EA GERTIE 1964-03-19 12:00:00 TS -18.1000 156.000 main 732 732 O________OO_O_ jtwc_sh SH271964 -18.1000 156.000 -1 -18.1000 156.000 TC -18.1000 156.000 2 -18.1000 156.000 TC 35 3 36
1964074S15149 1964 21 SP EA GERTIE 1964-03-19 15:00:00 TS -17.8762 156.229 main 762 762 P________PP_P_ SH271964 -17.8950 156.218 -1 -17.8950 156.218 TC -17.8849 156.205 2 -17.8301 156.275 TC 35 8 48
1964074S15149 1964 21 SP EA GERTIE 1964-03-19 18:00:00 TS -17.5757 156.616 main 816 809 O________OP_O_ jtwc_sh SH271964 -17.6000 156.600 -1 -17.6000 156.600 TC -17.6028 156.564 2 -17.5000 156.700 TC 35 10 53
1964074S15149 1964 21 SP EA GERTIE 1964-03-19 21:00:00 TS -17.2842 157.039 main 809 777 P________PP_P_ SH271964 -17.3000 157.028 -1 -17.3000 157.028 TC -17.2943 157.015 2 -17.2424 157.085 TC 35 10 56
1964074S15149 1964 21 SP EA GERTIE 1964-03-20 00:00:00 TS -17.0000 157.500 main 777 752 O________OO_O_ jtwc_sh SH271964 -17.0000 157.500 -1 -17.0000 157.500 TC -17.0000 157.500 2 -17.0000 157.500 TC 35 10 57
1964074S15149 1964 21 SP EA GERTIE 1964-03-20 03:00:00 TS -16.7319 157.942 main 758 727 P________PP_P_ SH271964 -16.7274 157.950 -1 -16.7274 157.950 TC -16.7377 157.925 2 -16.7350 157.943 TC 35 10 60
1964074S15149 1964 21 SP EA GERTIE 1964-03-20 06:00:00 TS -16.5006 158.393 main 727 695 O________OP_O_ jtwc_sh SH271964 -16.5000 158.400 -1 -16.5000 158.400 TC -16.5023 158.371 2 -16.5000 158.400 TC 35 10 64
1964074S15149 1964 21 SP EA GERTIE 1964-03-20 09:00:00 TS -16.3076 158.843 main 695 662 P________PP_P_ SH271964 -16.3049 158.850 -1 -16.3049 158.850 TC -16.3158 158.831 2 -16.3049 158.843 TC 35 9 71
1964074S15149 1964 21 SP EA GERTIE 1964-03-20 12:00:00 TS -16.2000 159.300 main 662 645 O________OO_O_ jtwc_sh SH271964 -16.2000 159.300 -1 -16.2000 159.300 TC -16.2000 159.300 2 -16.2000 159.300 TC 35 9 84
1964074S15149 1964 21 SP EA GERTIE 1964-03-20 15:00:00 TS -16.2093 159.756 main 637 599 P________PP_P_ SH271964 -16.2199 159.742 -1 -16.2199 159.742 TC -16.1774 159.739 2 -16.2200 159.800 TC 35 9 95
1964074S15149 1964 21 SP MM GERTIE 1964-03-20 18:00:00 TS -16.2810 160.222 main 599 565 O________OP_O_ jtwc_sh SH271964 -16.3000 160.200 -1 -16.3000 160.200 TC -16.2239 160.189 2 -16.3000 160.300 TC 35 9 98
1964074S15149 1964 21 SP MM GERTIE 1964-03-20 21:00:00 TS -16.3394 160.684 main 565 523 P________PP_P_ SH271964 -16.3498 160.670 -1 -16.3498 160.670 TC -16.3085 160.670 2 -16.3496 160.728 TC 35 9 97
1964074S15149 1964 21 SP MM GERTIE 1964-03-21 00:00:00 TS -16.4000 161.200 main 523 489 O________OO_O_ jtwc_sh SH271964 -16.4000 161.200 -1 -16.4000 161.200 TC -16.4000 161.200 2 -16.4000 161.200 TC 35 11 96
1964074S15149 1964 21 SP MM GERTIE 1964-03-21 03:00:00 TS -16.4511 161.821 main 479 447 P________PP_P_ SH271964 -16.4500 161.828 -1 -16.4500 161.828 TC -16.4543 161.808 2 -16.4500 161.820 TC 35 12 95
1964074S15149 1964 21 SP MM GERTIE 1964-03-21 06:00:00 TS -16.5020 162.491 main 447 394 O________OP_O_ jtwc_sh SH271964 -16.5000 162.500 -1 -16.5000 162.500 TC -16.5079 162.462 2 -16.5000 162.500 TC 35 13 95
1964074S15149 1964 21 SP MM GERTIE 1964-03-21 09:00:00 TS -16.5517 163.152 main 387 328 P________PP_P_ SH271964 -16.5499 163.158 -1 -16.5499 163.158 TC -16.5574 163.136 2 -16.5499 163.158 TC 35 13 94
1964074S15149 1964 21 SP MM GERTIE 1964-03-21 12:00:00 TS -16.6000 163.800 main 328 276 O________OO_O_ jtwc_sh SH271964 -16.6000 163.800 -1 -16.6000 163.800 TC -16.6000 163.800 2 -16.6000 163.800 TC 35 12 95
1964074S15149 1964 21 SP MM GERTIE 1964-03-21 15:00:00 TS -16.6529 164.410 main 276 222 P________PP_P_ SH271964 -16.6573 164.407 -1 -16.6573 164.407 TC -16.6397 164.418 2 -16.6573 164.407 TC 35 12 95
1964074S15149 1964 21 SP MM GERTIE 1964-03-21 18:00:00 TS -16.6929 165.006 main 222 170 O________OP_O_ jtwc_sh SH271964 -16.7000 165.000 -1 -16.7000 165.000 TC -16.6717 165.022 2 -16.7000 165.000 TC 35 12 93
1964074S15149 1964 21 SP MM GERTIE 1964-03-21 21:00:00 TS -16.7038 165.609 main 170 117 P________PP_P_ SH271964 -16.7074 165.608 -1 -16.7074 165.608 TC -16.6929 165.615 2 -16.7074 165.608 TC 35 11 90
1964074S15149 1964 21 SP MM GERTIE 1964-03-22 00:00:00 TS -16.7000 166.200 main 117 77 O________OO_O_ jtwc_sh SH271964 -16.7000 166.200 -1 -16.7000 166.200 TC -16.7000 166.200 2 -16.7000 166.200 TC 35 11 90
1964074S15149 1964 21 SP MM GERTIE 1964-03-22 03:00:00 TS -16.6985 166.756 main 67 24 P________PP_P_ SH271964 -16.7072 166.750 -1 -16.7072 166.750 TC -16.6724 166.775 2 -16.7072 166.750 TC 35 11 89
1964074S15149 1964 21 SP MM GERTIE 1964-03-22 06:00:00 TS -16.6835 167.311 main 24 0 O________OP_O_ jtwc_sh SH271964 -16.7000 167.300 -1 -16.7000 167.300 TC -16.6340 167.343 2 -16.7000 167.300 TC 35 11 87
1964074S15149 1964 21 SP MM GERTIE 1964-03-22 09:00:00 TS -16.6327 167.896 main 10 10 P________PP_P_ SH271964 -16.6424 167.893 -1 -16.6424 167.893 TC -16.6036 167.915 2 -16.6423 167.885 TC 35 11 86
1964074S15149 1964 21 SP MM GERTIE 1964-03-22 12:00:00 TS -16.6000 168.500 main 74 74 O________OO_O_ jtwc_sh SH271964 -16.6000 168.500 -1 -16.6000 168.500 TC -16.6000 168.500 2 -16.6000 168.500 TC 35 12 90
1964074S15149 1964 21 SP MM GERTIE 1964-03-22 15:00:00 TS -16.6297 169.110 main 138 138 P________PP_P_ SH271964 -16.6273 169.092 -1 -16.6273 169.092 TC -16.6367 169.105 2 -16.6274 169.150 TC 35 12 95
1964074S15149 1964 21 SP MM GERTIE 1964-03-22 18:00:00 TS -16.7017 169.732 main 202 202 O________OP_O_ jtwc_sh SH271964 -16.7000 169.700 -1 -16.7000 169.700 TC -16.7068 169.726 2 -16.7000 169.800 TC 35 12 98
1964074S15149 1964 21 SP MM GERTIE 1964-03-22 21:00:00 TS -16.7962 170.363 main 277 277 P________PP_P_ SH271964 -16.7955 170.340 -1 -16.7955 170.340 TC -16.7985 170.360 2 -16.7952 170.412 TC 32 12 99
1964074S15149 1964 21 SP MM GERTIE 1964-03-23 00:00:00 TS -16.9000 171.000 main 342 O________OO_O_ jtwc_sh SH271964 -16.9000 171.000 -1 -16.9000 171.000 TC -16.9000 171.000 2 -16.9000 171.000 TC 30 12 100

デジタル台風データ・検索

IBTrACS Databaseについて

本データベースは、米国NOAAが公開する1842年以降の世界の熱帯低気圧のベストトラックデータアーカイブInternational Best Track Archive for Climate Stewardship (IBTrACS)を、ウェブで閲覧しやすい形式に変換したものです。

最終更新日:2021-10-21